createdAt,value
2019-03-26T00:02:05.997Z,100511.31
2019-03-26T00:04:41.151Z,100515.09
2019-03-26T00:07:11.905Z,100513.92
2019-03-26T00:09:42.761Z,100507.80
2019-03-26T00:12:13.615Z,100500.42
2019-03-26T00:14:44.249Z,100504.14
2019-03-26T00:17:19.096Z,100503.52
2019-03-26T00:19:51.279Z,100505.05
2019-03-26T00:22:22.156Z,100495.58
2019-03-26T00:24:56.785Z,100494.35
2019-03-26T00:27:27.651Z,100493.12
2019-03-26T00:29:58.288Z,100491.75
2019-03-26T00:32:29.056Z,100490.42
2019-03-26T00:34:59.707Z,100495.17
2019-03-26T00:37:30.562Z,100485.38
2019-03-26T00:40:01.423Z,100489.81
2019-03-26T00:42:32.175Z,100483.25
2019-03-26T00:45:02.836Z,100482.48
2019-03-26T00:47:33.682Z,100478.70
2019-03-26T00:50:05.428Z,100490.42
2019-03-26T00:52:36.212Z,100482.34
2019-03-26T00:55:21.601Z,100488.34
2019-03-26T00:57:41.505Z,100495.69
2019-03-26T01:00:12.259Z,100498.76
2019-03-26T01:02:42.913Z,100498.23
2019-03-26T01:05:13.663Z,100488.34
2019-03-26T01:07:44.417Z,100499.84
2019-03-26T01:10:18.244Z,100502.89
2019-03-26T01:12:48.892Z,100500.05
2019-03-26T01:15:19.747Z,100503.88
2019-03-26T01:17:50.501Z,100505.39
2019-03-26T01:20:21.258Z,100504.98
2019-03-26T01:22:51.991Z,100498.27
2019-03-26T01:25:22.904Z,100510.04
2019-03-26T01:27:53.720Z,100505.25
2019-03-26T01:30:24.371Z,100512.13
2019-03-26T01:32:55.229Z,100500.19
2019-03-26T01:35:27.520Z,100507.98
2019-03-26T01:37:59.684Z,100508.30
2019-03-26T01:40:30.252Z,100514.72
2019-03-26T01:43:00.988Z,100517.63
2019-03-26T01:45:31.863Z,100504.63
2019-03-26T01:48:02.613Z,100509.99
2019-03-26T01:50:33.251Z,100507.06
2019-03-26T01:53:04.122Z,100512.23
2019-03-26T01:55:34.964Z,100502.48
2019-03-26T01:58:06.533Z,100502.33
2019-03-26T02:00:37.307Z,100501.98
2019-03-26T02:03:07.956Z,100501.42
2019-03-26T02:05:38.693Z,100512.42
2019-03-26T02:08:09.570Z,100514.47
2019-03-26T02:10:40.323Z,100524.97
2019-03-26T02:13:10.957Z,100521.91
2019-03-26T02:15:41.706Z,100517.73
2019-03-26T02:18:12.584Z,100537.00
2019-03-26T02:20:43.218Z,100542.09
2019-03-26T02:23:13.298Z,100538.73
2019-03-26T02:25:43.822Z,100542.70
2019-03-26T02:28:14.478Z,100547.13
2019-03-26T02:30:45.331Z,100537.92
2019-03-26T02:33:16.086Z,100547.41
2019-03-26T02:35:46.836Z,100549.08
2019-03-26T02:38:17.594Z,100550.30
2019-03-26T02:40:48.449Z,100546.02
2019-03-26T02:43:19.080Z,100546.52
2019-03-26T02:45:49.957Z,100555.66
2019-03-26T02:48:20.692Z,100556.77
2019-03-26T02:50:51.679Z,100555.05
2019-03-26T02:53:21.525Z,100557.80
2019-03-26T02:55:51.929Z,100559.01
2019-03-26T02:58:22.701Z,100555.05
2019-03-26T03:00:53.336Z,100561.05
2019-03-26T03:03:23.418Z,100561.51
2019-03-26T03:05:53.946Z,100561.78
2019-03-26T03:08:24.683Z,100561.05
2019-03-26T03:10:55.533Z,100568.55
2019-03-26T03:13:26.304Z,100566.67
2019-03-26T03:15:57.080Z,100559.17
2019-03-26T03:18:27.711Z,100566.82
2019-03-26T03:20:58.447Z,100565.17
2019-03-26T03:23:29.222Z,100564.58
2019-03-26T03:25:59.851Z,100558.30
2019-03-26T03:28:30.037Z,100569.01
2019-03-26T03:31:00.560Z,100575.42
2019-03-26T03:33:31.018Z,100576.66
2019-03-26T03:36:00.966Z,100578.34
2019-03-26T03:38:31.476Z,100581.09
2019-03-26T03:41:02.246Z,100576.81
2019-03-26T03:43:33.098Z,100571.61
2019-03-26T03:46:04.162Z,100578.95
2019-03-26T03:48:34.489Z,100580.06
2019-03-26T03:51:04.571Z,100576.05
2019-03-26T03:53:34.973Z,100583.70
2019-03-26T03:56:05.053Z,100578.34
2019-03-26T03:58:35.783Z,100584.91
2019-03-26T04:01:06.548Z,100582.63
2019-03-26T04:03:37.176Z,100585.69
2019-03-26T04:06:09.926Z,100590.69
2019-03-26T04:08:40.417Z,100593.89
2019-03-26T04:11:11.074Z,100590.22
2019-03-26T04:13:41.147Z,100597.56
2019-03-26T04:16:11.681Z,100599.08
2019-03-26T04:18:42.204Z,100599.39
2019-03-26T04:21:13.086Z,100601.34
2019-03-26T04:23:43.935Z,100603.77
2019-03-26T04:26:14.691Z,100599.55
2019-03-26T04:28:45.448Z,100598.42
2019-03-26T04:31:16.314Z,100594.44
2019-03-26T04:33:46.943Z,100591.02
2019-03-26T04:36:25.679Z,100592.25
2019-03-26T04:38:49.993Z,100593.18
2019-03-26T04:41:20.731Z,100588.07
2019-03-26T04:43:51.492Z,100584.39
2019-03-26T04:46:22.132Z,100584.55
2019-03-26T04:48:53.010Z,100579.24
2019-03-26T04:51:23.762Z,100590.70
2019-03-26T04:53:54.398Z,100598.50
2019-03-26T04:56:25.270Z,100596.41
2019-03-26T04:58:56.434Z,100611.98
2019-03-26T05:01:26.862Z,100604.62
2019-03-26T05:03:57.531Z,100616.06
2019-03-26T05:06:38.039Z,100613.19
2019-03-26T05:09:00.981Z,100613.19
2019-03-26T05:11:31.632Z,100611.98
2019-03-26T05:14:02.494Z,100613.97
2019-03-26T05:16:33.352Z,100618.97
2019-03-26T05:19:03.980Z,100613.41
2019-03-26T05:21:34.633Z,100620.13
2019-03-26T05:24:04.710Z,100625.28
2019-03-26T05:26:35.340Z,100631.23
2019-03-26T05:29:05.195Z,100625.78
2019-03-26T05:31:35.721Z,100617.46
2019-03-26T05:34:06.474Z,100622.40
2019-03-26T05:36:50.401Z,100622.23
2019-03-26T05:39:09.317Z,100623.16
2019-03-26T05:41:40.048Z,100628.06
2019-03-26T05:44:10.924Z,100631.28
2019-03-26T05:46:41.557Z,100633.16
2019-03-26T05:49:11.801Z,100635.05
2019-03-26T05:51:42.044Z,100632.15
2019-03-26T05:54:12.815Z,100637.29
2019-03-26T05:56:43.465Z,100635.27
2019-03-26T05:59:15.344Z,100643.14
2019-03-26T06:01:46.301Z,100655.58
2019-03-26T06:04:17.054Z,100651.21
2019-03-26T06:06:47.712Z,100654.61
2019-03-26T06:09:18.769Z,100661.77
2019-03-26T06:11:49.522Z,100652.25
2019-03-26T06:14:20.157Z,100651.64
2019-03-26T06:16:50.236Z,100649.58
2019-03-26T06:19:20.745Z,100658.14
2019-03-26T06:21:50.822Z,100651.80
2019-03-26T06:24:21.336Z,100649.94
2019-03-26T06:26:51.982Z,100648.73
2019-03-26T06:29:22.734Z,100660.06
2019-03-26T06:31:53.613Z,100660.41
2019-03-26T06:34:24.246Z,100656.42
2019-03-26T06:36:55.014Z,100661.30
2019-03-26T06:39:25.678Z,100664.27
2019-03-26T06:41:56.407Z,100668.58
2019-03-26T06:44:27.175Z,100669.01
2019-03-26T06:46:57.931Z,100669.85
2019-03-26T06:49:28.584Z,100675.94
2019-03-26T06:51:59.214Z,100676.42
2019-03-26T06:54:29.972Z,100676.06
2019-03-26T06:57:00.740Z,100673.92
2019-03-26T06:59:32.502Z,100685.16
2019-03-26T07:02:03.169Z,100680.45
2019-03-26T07:04:34.028Z,100685.42
2019-03-26T07:07:04.864Z,100681.57
2019-03-26T07:09:35.518Z,100682.59
2019-03-26T07:12:07.814Z,100696.45
2019-03-26T07:14:37.348Z,100698.48
2019-03-26T07:17:08.100Z,100700.82
2019-03-26T07:19:38.755Z,100709.42
2019-03-26T07:22:11.144Z,100709.56
2019-03-26T07:24:41.927Z,100717.59
2019-03-26T07:27:12.652Z,100720.66
2019-03-26T07:29:43.304Z,100715.81
2019-03-26T07:32:15.494Z,100718.34
2019-03-26T07:34:46.157Z,100718.51
2019-03-26T07:37:17.304Z,100712.56
2019-03-26T07:39:48.166Z,100707.01
2019-03-26T07:42:19.018Z,100703.52
2019-03-26T07:44:49.649Z,100708.35
2019-03-26T07:47:19.728Z,100699.73
2019-03-26T07:49:50.239Z,100705.80
2019-03-26T07:52:20.916Z,100712.58
2019-03-26T07:54:52.462Z,100710.44
2019-03-26T07:57:24.006Z,100703.38
2019-03-26T07:59:55.415Z,100704.66
2019-03-26T08:02:26.289Z,100703.20
2019-03-26T08:04:57.029Z,100707.23
2019-03-26T08:07:27.805Z,100716.36
2019-03-26T08:09:58.430Z,100708.34
2019-03-26T08:12:29.168Z,100707.05
2019-03-26T08:15:00.420Z,100701.61
2019-03-26T08:17:31.206Z,100704.90
2019-03-26T08:20:01.944Z,100700.20
2019-03-26T08:22:32.596Z,100708.33
2019-03-26T08:25:04.184Z,100708.78
2019-03-26T08:27:34.628Z,100711.78
2019-03-26T08:30:07.126Z,100720.23
2019-03-26T08:32:37.573Z,100719.53
2019-03-26T08:35:08.325Z,100717.41
2019-03-26T08:37:38.966Z,100724.09
2019-03-26T08:40:09.041Z,100729.44
2019-03-26T08:42:39.562Z,100726.85
2019-03-26T08:45:10.216Z,100738.00
2019-03-26T08:47:41.071Z,100736.96
2019-03-26T08:50:12.029Z,100748.19
2019-03-26T08:52:42.475Z,100744.12
2019-03-26T08:55:13.316Z,100747.36
2019-03-26T08:57:43.885Z,100740.67
2019-03-26T09:00:14.744Z,100742.66
2019-03-26T09:02:45.492Z,100743.56
2019-03-26T09:05:16.141Z,100753.52
2019-03-26T09:07:46.879Z,100753.55
2019-03-26T09:10:17.530Z,100758.09
2019-03-26T09:12:48.302Z,100750.08
2019-03-26T09:15:18.937Z,100758.42
2019-03-26T09:17:49.605Z,100751.83
2019-03-26T09:20:20.463Z,100755.45
2019-03-26T09:22:51.095Z,100749.14
2019-03-26T09:25:21.744Z,100751.34
2019-03-26T09:27:52.596Z,100751.48
2019-03-26T09:30:22.579Z,100751.66
2019-03-26T09:32:52.986Z,100747.02
2019-03-26T09:35:23.756Z,100747.06
2019-03-26T09:37:54.645Z,100748.00
2019-03-26T09:40:25.371Z,100740.62
2019-03-26T09:42:56.002Z,100747.62
2019-03-26T09:45:26.755Z,100746.57
2019-03-26T09:47:57.526Z,100747.78
2019-03-26T09:50:33.573Z,100754.22
2019-03-26T09:53:04.439Z,100756.27
2019-03-26T09:55:34.310Z,100760.22
2019-03-26T09:58:04.841Z,100759.40
2019-03-26T10:00:36.152Z,100750.75
2019-03-26T10:03:07.171Z,100747.11
2019-03-26T10:05:37.797Z,100738.92
2019-03-26T10:08:07.875Z,100738.94
2019-03-26T10:10:38.386Z,100738.18
2019-03-26T10:13:09.157Z,100738.86
2019-03-26T10:15:39.893Z,100737.11
2019-03-26T10:18:10.770Z,100735.45
2019-03-26T10:20:41.521Z,100736.22
2019-03-26T10:23:12.172Z,100728.35
2019-03-26T10:25:42.915Z,100726.83
2019-03-26T10:28:13.559Z,100730.52
2019-03-26T10:30:44.330Z,100728.52
2019-03-26T10:33:14.993Z,100722.96
2019-03-26T10:35:45.721Z,100719.16
2019-03-26T10:38:16.371Z,100715.34
2019-03-26T10:40:47.027Z,100715.70
2019-03-26T10:43:17.693Z,100718.25
2019-03-26T10:45:48.427Z,100718.45
2019-03-26T10:48:19.184Z,100715.00
2019-03-26T10:50:49.837Z,100711.84
2019-03-26T10:53:20.486Z,100712.83
2019-03-26T10:55:50.563Z,100703.90
2019-03-26T10:58:21.074Z,100713.34
2019-03-26T11:00:52.867Z,100714.94
2019-03-26T11:03:23.316Z,100714.36
2019-03-26T11:05:53.970Z,100716.88
2019-03-26T11:08:24.822Z,100709.22
2019-03-26T11:10:55.456Z,100715.00
2019-03-26T11:13:26.108Z,100716.41
2019-03-26T11:15:56.074Z,100715.77
2019-03-26T11:18:26.591Z,100717.91
2019-03-26T11:21:02.793Z,100710.97
2019-03-26T11:23:29.445Z,100707.56
2019-03-26T11:26:00.303Z,100712.70
2019-03-26T11:28:31.059Z,100712.42
2019-03-26T11:31:01.693Z,100708.53
2019-03-26T11:33:32.358Z,100707.03
2019-03-26T11:36:03.096Z,100703.67
2019-03-26T11:38:33.969Z,100709.71
2019-03-26T11:41:04.723Z,100711.09
2019-03-26T11:43:35.254Z,100702.27
2019-03-26T11:46:06.133Z,100704.67
2019-03-26T11:48:36.864Z,100711.48
2019-03-26T11:51:07.643Z,100702.64
2019-03-26T11:53:38.279Z,100705.30
2019-03-26T11:56:09.150Z,100709.28
2019-03-26T11:58:39.899Z,100712.18
2019-03-26T12:01:10.940Z,100700.11
2019-03-26T12:03:41.816Z,100693.80
2019-03-26T12:06:12.570Z,100689.77
2019-03-26T12:08:43.326Z,100693.05
2019-03-26T12:11:14.189Z,100685.33
2019-03-26T12:13:45.036Z,100686.72
2019-03-26T12:16:15.790Z,100683.81
2019-03-26T12:18:46.440Z,100679.77
2019-03-26T12:21:17.279Z,100681.82
2019-03-26T12:23:48.034Z,100681.41
2019-03-26T12:26:18.685Z,100682.66
2019-03-26T12:28:49.337Z,100681.80
2019-03-26T12:31:20.218Z,100682.32
2019-03-26T12:33:50.965Z,100677.00
2019-03-26T12:36:21.720Z,100681.16
2019-03-26T12:38:52.351Z,100674.10
2019-03-26T12:41:23.107Z,100675.08
2019-03-26T12:43:53.879Z,100676.87
2019-03-26T12:46:24.634Z,100680.30
2019-03-26T12:48:55.284Z,100683.31
2019-03-26T12:51:26.017Z,100682.03
2019-03-26T12:53:56.773Z,100681.92
2019-03-26T12:56:27.544Z,100682.89
2019-03-26T12:58:58.197Z,100676.08
2019-03-26T13:01:29.363Z,100668.62
2019-03-26T13:04:11.900Z,100671.31
2019-03-26T13:06:32.093Z,100677.52
2019-03-26T13:09:02.949Z,100684.09
2019-03-26T13:11:33.382Z,100681.64
2019-03-26T13:14:04.250Z,100682.68
2019-03-26T13:16:35.005Z,100680.84
2019-03-26T13:19:05.659Z,100679.39
2019-03-26T13:21:37.595Z,100679.36
2019-03-26T13:24:11.297Z,100675.89
2019-03-26T13:26:40.476Z,100675.13
2019-03-26T13:29:11.230Z,100679.48
2019-03-26T13:31:41.982Z,100676.96
2019-03-26T13:34:12.719Z,100673.73
2019-03-26T13:36:43.592Z,100674.22
2019-03-26T13:39:14.226Z,100675.36
2019-03-26T13:41:44.882Z,100669.31
2019-03-26T13:44:15.652Z,100671.19
2019-03-26T13:46:46.387Z,100665.26
2019-03-26T13:49:16.464Z,100672.57
2019-03-26T13:51:47.985Z,100664.22
2019-03-26T13:54:18.647Z,100667.53
2019-03-26T13:56:49.522Z,100659.30
2019-03-26T13:59:20.377Z,100667.93
2019-03-26T14:01:52.262Z,100670.26
2019-03-26T14:04:23.010Z,100665.61
2019-03-26T14:06:53.545Z,100662.23
2019-03-26T14:09:24.306Z,100661.63
2019-03-26T14:11:57.582Z,100661.28
2019-03-26T14:14:27.163Z,100660.16
2019-03-26T14:16:57.792Z,100658.39
2019-03-26T14:19:28.659Z,100654.29
2019-03-26T14:21:59.414Z,100647.45
2019-03-26T14:24:30.066Z,100653.13
2019-03-26T14:27:00.921Z,100655.66
2019-03-26T14:29:31.676Z,100658.69
2019-03-26T14:32:02.431Z,100657.67
2019-03-26T14:34:33.081Z,100659.60
2019-03-26T14:37:03.815Z,100659.83
2019-03-26T14:39:34.589Z,100663.13
2019-03-26T14:42:05.342Z,100665.40
2019-03-26T14:44:35.992Z,100663.13
2019-03-26T14:47:06.730Z,100670.22
2019-03-26T14:49:37.382Z,100666.05
2019-03-26T14:52:08.032Z,100669.34
2019-03-26T14:54:38.703Z,100662.41
2019-03-26T14:57:09.558Z,100664.42
2019-03-26T14:59:40.421Z,100665.31
2019-03-26T15:02:11.168Z,100671.86
2019-03-26T15:04:41.701Z,100667.06
2019-03-26T15:07:12.574Z,100670.59
2019-03-26T15:09:43.325Z,100679.28
2019-03-26T15:12:13.961Z,100679.15
2019-03-26T15:14:44.616Z,100676.77
2019-03-26T15:17:15.485Z,100684.83
2019-03-26T15:19:46.240Z,100674.63
2019-03-26T15:22:16.998Z,100676.11
2019-03-26T15:24:47.527Z,100681.55
2019-03-26T15:27:18.399Z,100681.02
2019-03-26T15:29:49.255Z,100682.67
2019-03-26T15:32:19.991Z,100685.09
2019-03-26T15:34:50.868Z,100681.42
2019-03-26T15:37:22.625Z,100682.94
2019-03-26T15:39:55.548Z,100684.43
2019-03-26T15:42:26.199Z,100684.42
2019-03-26T15:44:57.052Z,100686.56
2019-03-26T15:47:27.804Z,100689.33
2019-03-26T15:49:58.560Z,100680.59
2019-03-26T15:52:29.417Z,100687.30
2019-03-26T15:55:00.459Z,100682.73
2019-03-26T15:57:31.536Z,100676.19
2019-03-26T16:00:02.120Z,100677.93
2019-03-26T16:02:40.293Z,100675.28
2019-03-26T16:05:10.939Z,100685.59
2019-03-26T16:07:41.712Z,100688.68
2019-03-26T16:10:12.362Z,100688.66
2019-03-26T16:12:43.205Z,100697.84
2019-03-26T16:15:13.974Z,100715.75
2019-03-26T16:17:44.725Z,100718.08
2019-03-26T16:20:15.585Z,100737.08
2019-03-26T16:22:46.439Z,100726.61
2019-03-26T16:25:17.196Z,100738.91
2019-03-26T16:27:47.826Z,100750.27
2019-03-26T16:30:17.692Z,100751.32
2019-03-26T16:32:48.105Z,100753.89
2019-03-26T16:35:18.074Z,100758.27
2019-03-26T16:37:48.592Z,100776.37
2019-03-26T16:40:19.349Z,100765.63
2019-03-26T16:42:50.120Z,100770.11
2019-03-26T16:45:20.976Z,100783.39
2019-03-26T16:47:51.610Z,100785.72
2019-03-26T16:50:21.691Z,100780.96
2019-03-26T16:52:52.109Z,100787.52
2019-03-26T16:55:22.868Z,100784.14
2019-03-26T16:57:53.514Z,100789.23
2019-03-26T17:00:32.432Z,100789.03
2019-03-26T17:03:04.026Z,100794.08
2019-03-26T17:05:34.657Z,100803.83
2019-03-26T17:08:05.431Z,100801.75
2019-03-26T17:10:36.267Z,100815.88
2019-03-26T17:13:07.157Z,100812.02
2019-03-26T17:15:37.896Z,100825.45
2019-03-26T17:18:09.162Z,100825.66
2019-03-26T17:20:40.024Z,100826.45
2019-03-26T17:23:10.753Z,100820.56
2019-03-26T17:25:41.422Z,100831.75
2019-03-26T17:28:12.260Z,100828.91
2019-03-26T17:30:43.031Z,100834.63
2019-03-26T17:33:13.786Z,100834.33
2019-03-26T17:35:44.436Z,100839.00
2019-03-26T17:38:15.295Z,100835.06
2019-03-26T17:40:46.148Z,100840.43
2019-03-26T17:43:16.906Z,100848.05
2019-03-26T17:45:50.113Z,100844.84
2019-03-26T17:48:20.865Z,100851.47
2019-03-26T17:50:51.726Z,100851.47
2019-03-26T17:53:22.479Z,100853.64
2019-03-26T17:55:53.230Z,100853.64
2019-03-26T17:58:23.866Z,100863.18
2019-03-26T18:00:56.391Z,100867.27
2019-03-26T18:03:28.447Z,100869.93
2019-03-26T18:06:04.739Z,100860.27
2019-03-26T18:08:35.296Z,100861.92
2019-03-26T18:11:06.244Z,100856.13
2019-03-26T18:13:39.247Z,100851.84
2019-03-26T18:16:09.797Z,100860.44
2019-03-26T18:18:41.188Z,100859.27
2019-03-26T18:21:11.804Z,100862.31
2019-03-26T18:23:43.044Z,100860.84
2019-03-26T18:26:13.510Z,100859.46
2019-03-26T18:28:44.181Z,100855.64
2019-03-26T18:31:24.143Z,100854.56
2019-03-26T18:34:01.418Z,100850.54
2019-03-26T18:36:37.794Z,100850.42
2019-03-26T18:39:09.073Z,100855.02
2019-03-26T18:41:39.823Z,100853.50
2019-03-26T18:44:10.695Z,100848.91
2019-03-26T18:46:41.449Z,100844.16
2019-03-26T18:49:12.311Z,100851.11
2019-03-26T18:51:43.372Z,100848.81
2019-03-26T18:54:14.225Z,100848.50
2019-03-26T18:56:44.872Z,100849.58
2019-03-26T18:59:15.712Z,100856.63
2019-03-26T19:01:46.482Z,100859.22
2019-03-26T19:04:18.368Z,100851.72
2019-03-26T19:06:49.125Z,100853.47
2019-03-26T19:09:19.749Z,100856.22
2019-03-26T19:11:58.310Z,100851.97
2019-03-26T19:14:29.472Z,100853.30
2019-03-26T19:16:59.887Z,100848.40
2019-03-26T19:19:30.663Z,100849.20
2019-03-26T19:22:01.413Z,100850.91
2019-03-26T19:24:32.372Z,100861.37
2019-03-26T19:27:04.968Z,100862.41
